Millis, MA (02054)

4:00 PM EST on February 01, 2015 (GMT -0500)
Independence Ln | Change Station
CLOSE
Current Station
Personal Weather Station
Location: Millis, MA
Elevation: 197 ft
Nearby Weather Stations
Active Advisory: Winter Storm Warning

Elev 197 ft 42.14 °N, 71.38 °W | Updated 8 seconds ago

Clear
Clear
30.0 °F
Feels Like 25 °F
N
5.1
Wind Variable Wind from WSW
Gusts 8.1 mph

Today
High -- | Low -- °F
--% Chance of Precip.
Yesterday
High -- | Low -- °F
Precip. -- in
6:58 AM 4:59 PM
Waxing Gibbous, 96% visible
Pressure 30.11 in
Visibility 10.0 miles
Clouds Clear
Windchill 25 °F
Dew Point 12 °F
Humidity 47%
Rainfall 0.00 in
Snow Depth Not available.
UV 0 out of 12
Pollen .10 out of 12
Air Quality Not available.
Flu Activity Not available.
METAR KOWD 012053Z 27011KT 10SM CLR M01/M13 A3011 RMK AO2 SLP196 T10111133 53001

More Conditions Fewer Conditions

Pressure 30.11 in
Visibility 10.0 miles
Clouds Clear
Windchill 25 °F
Dew Point 12 °F
Humidity 47%
Rainfall 0.00 in
Snow Depth Not available.
UV 0 out of 12
Pollen .10 out of 12
Air Quality Not available.
Flu Activity Not available.
METAR KOWD 012053Z 27011KT 10SM CLR M01/M13 A3011 RMK AO2 SLP196 T10111133 53001

More Conditions Fewer Conditions

10-Day Weather Forecast

Almanac

Astronomy

Feb. 01, 2015 Rise Set
Actual Time
Civil Twilight
Nautical Twilight
Astronomical Twilight
Moon
Length of Visible Light
Length of Day
Tomorrow will be .
, % of the Moon is Illuminated

Today's Extremes

State Highs State Lows

Community

WunderPhotos

Upload Photos

1,792,514 photos uploaded!

WunderBlogs® & News

Nearby

Air Quality

  Air Quality AQ Index Pollutant
Not available.

Snow Depth

Station Depth Elevation

Earthquake Activity

City Distance Mag. Time & Date
Minimum magnitude displayed is 2.5.

Coastal Water Temperatures

Place Temperature

Nearby Weather Stations